sensor_id;sensor_type;location;lat;lon;timestamp;pressure;altitude;pressure_sealevel;temperature;humidity
61676;BME280;47574;52.090;5.244;2022-08-25T00:00:47;101693.0;;;28.83;52.81
61676;BME280;47574;52.090;5.244;2022-08-25T00:02:24;101691.0;;;28.78;52.88
61676;BME280;47574;52.090;5.244;2022-08-25T00:04:04;101684.0;;;28.88;52.54
61676;BME280;47574;52.090;5.244;2022-08-25T00:05:42;101681.0;;;28.77;52.69
61676;BME280;47574;52.090;5.244;2022-08-25T00:08:58;101680.0;;;28.82;52.52
61676;BME280;47574;52.090;5.244;2022-08-25T00:10:37;101678.0;;;28.79;52.52
61676;BME280;47574;52.090;5.244;2022-08-25T00:12:13;101680.0;;;28.7;52.77
61676;BME280;47574;52.090;5.244;2022-08-25T00:15:30;101676.0;;;28.79;52.44
61676;BME280;47574;52.090;5.244;2022-08-25T00:17:07;101675.0;;;28.64;52.79
61676;BME280;47574;52.090;5.244;2022-08-25T00:18:49;101676.0;;;28.58;52.9
61676;BME280;47574;52.090;5.244;2022-08-25T00:20:26;101673.0;;;28.55;52.93
61676;BME280;47574;52.090;5.244;2022-08-25T00:23:43;101668.0;;;28.49;52.99
61676;BME280;47574;52.090;5.244;2022-08-25T00:25:19;101665.0;;;28.64;52.55
61676;BME280;47574;52.090;5.244;2022-08-25T00:26:58;101668.0;;;28.58;52.6
61676;BME280;47574;52.090;5.244;2022-08-25T00:30:13;101667.0;;;28.55;52.69
61676;BME280;47574;52.090;5.244;2022-08-25T00:31:52;101667.0;;;28.53;52.67
61676;BME280;47574;52.090;5.244;2022-08-25T00:33:32;101668.0;;;28.53;52.58
61676;BME280;47574;52.090;5.244;2022-08-25T00:35:09;101667.0;;;28.48;52.8
61676;BME280;47574;52.090;5.244;2022-08-25T00:38:23;101669.0;;;28.57;52.38
61676;BME280;47574;52.090;5.244;2022-08-25T00:39:59;101666.0;;;28.59;52.31
61676;BME280;47574;52.090;5.244;2022-08-25T00:41:36;101672.0;;;28.56;52.5
61676;BME280;47574;52.090;5.244;2022-08-25T00:44:53;101667.0;;;28.52;52.43
61676;BME280;47574;52.090;5.244;2022-08-25T00:46:32;101669.0;;;28.47;52.44
61676;BME280;47574;52.090;5.244;2022-08-25T00:48:11;101671.0;;;28.55;52.33
61676;BME280;47574;52.090;5.244;2022-08-25T00:49:50;101671.0;;;28.43;52.51
61676;BME280;47574;52.090;5.244;2022-08-25T00:53:20;101669.0;;;28.46;52.41
61676;BME280;47574;52.090;5.244;2022-08-25T00:54:59;101669.0;;;28.43;52.49
61676;BME280;47574;52.090;5.244;2022-08-25T00:56:38;101670.0;;;28.37;52.49
61676;BME280;47574;52.090;5.244;2022-08-25T00:58:17;101669.0;;;28.4;52.42
61676;BME280;47574;52.090;5.244;2022-08-25T01:01:33;101667.0;;;28.26;52.73
61676;BME280;47574;52.090;5.244;2022-08-25T01:03:11;101660.0;;;28.2;52.96
61676;BME280;47574;52.090;5.244;2022-08-25T01:04:47;101661.0;;;28.29;52.59
61676;BME280;47574;52.090;5.244;2022-08-25T01:06:26;101663.0;;;28.18;52.73
61676;BME280;47574;52.090;5.244;2022-08-25T01:09:41;101661.0;;;28.15;52.68
61676;BME280;47574;52.090;5.244;2022-08-25T01:11:19;101662.0;;;28.18;52.5
61676;BME280;47574;52.090;5.244;2022-08-25T01:13:00;101659.0;;;28.09;52.63
61676;BME280;47574;52.090;5.244;2022-08-25T01:16:18;101658.0;;;28.02;52.74
61676;BME280;47574;52.090;5.244;2022-08-25T01:17:57;101655.0;;;28.08;52.5
61676;BME280;47574;52.090;5.244;2022-08-25T01:19:33;101653.0;;;28.06;52.49
61676;BME280;47574;52.090;5.244;2022-08-25T01:21:11;101648.0;;;28.08;52.17
61676;BME280;47574;52.090;5.244;2022-08-25T01:24:30;101647.0;;;28.02;52.35
61676;BME280;47574;52.090;5.244;2022-08-25T01:26:28;101646.0;;;28.08;52.16
61676;BME280;47574;52.090;5.244;2022-08-25T01:28:07;101645.0;;;28.04;52.09
61676;BME280;47574;52.090;5.244;2022-08-25T01:29:43;101647.0;;;28.02;52.02
61676;BME280;47574;52.090;5.244;2022-08-25T01:32:56;101647.0;;;28.03;51.85
61676;BME280;47574;52.090;5.244;2022-08-25T01:34:34;101650.0;;;28.0;51.86
61676;BME280;47574;52.090;5.244;2022-08-25T01:36:16;101649.0;;;28.18;51.36
61676;BME280;47574;52.090;5.244;2022-08-25T01:37:53;101653.0;;;28.12;51.46
61676;BME280;47574;52.090;5.244;2022-08-25T01:41:09;101653.0;;;28.11;51.28
61676;BME280;47574;52.090;5.244;2022-08-25T01:42:52;101650.0;;;28.08;51.38
61676;BME280;47574;52.090;5.244;2022-08-25T01:44:37;101652.0;;;27.96;51.49
61676;BME280;47574;52.090;5.244;2022-08-25T01:46:14;101648.0;;;28.03;51.11
61676;BME280;47574;52.090;5.244;2022-08-25T01:49:26;101648.0;;;28.08;50.97
61676;BME280;47574;52.090;5.244;2022-08-25T01:51:03;101646.0;;;27.95;51.04
61676;BME280;47574;52.090;5.244;2022-08-25T01:52:48;101642.0;;;27.79;51.46
61676;BME280;47574;52.090;5.244;2022-08-25T01:54:28;101640.0;;;27.91;50.89
61676;BME280;47574;52.090;5.244;2022-08-25T01:57:45;101643.0;;;27.88;50.97
61676;BME280;47574;52.090;5.244;2022-08-25T01:59:22;101641.0;;;27.85;51.0
61676;BME280;47574;52.090;5.244;2022-08-25T02:01:04;101641.0;;;27.92;50.93
61676;BME280;47574;52.090;5.244;2022-08-25T02:04:18;101639.0;;;27.92;50.84
61676;BME280;47574;52.090;5.244;2022-08-25T02:05:56;101640.0;;;27.87;50.67
61676;BME280;47574;52.090;5.244;2022-08-25T02:07:33;101638.0;;;27.91;50.6
61676;BME280;47574;52.090;5.244;2022-08-25T02:09:14;101639.0;;;27.96;50.41
61676;BME280;47574;52.090;5.244;2022-08-25T02:12:32;101636.0;;;27.84;50.26
61676;BME280;47574;52.090;5.244;2022-08-25T02:14:10;101632.0;;;27.83;50.36
61676;BME280;47574;52.090;5.244;2022-08-25T02:15:51;101633.0;;;28.03;49.69
61676;BME280;47574;52.090;5.244;2022-08-25T02:17:29;101632.0;;;27.92;49.95
61676;BME280;47574;52.090;5.244;2022-08-25T02:20:47;101633.0;;;27.77;50.04
61676;BME280;47574;52.090;5.244;2022-08-25T02:22:23;101634.0;;;27.8;50.07
61676;BME280;47574;52.090;5.244;2022-08-25T02:24:00;101636.0;;;27.75;49.98
61676;BME280;47574;52.090;5.244;2022-08-25T02:27:15;101636.0;;;27.84;49.68
61676;BME280;47574;52.090;5.244;2022-08-25T02:28:52;101638.0;;;27.9;49.18
61676;BME280;47574;52.090;5.244;2022-08-25T02:30:29;101638.0;;;27.85;49.22
61676;BME280;47574;52.090;5.244;2022-08-25T02:32:06;101638.0;;;27.81;49.33
61676;BME280;47574;52.090;5.244;2022-08-25T02:35:20;101634.0;;;27.84;48.95
61676;BME280;47574;52.090;5.244;2022-08-25T02:36:56;101630.0;;;27.7;49.14
61676;BME280;47574;52.090;5.244;2022-08-25T02:38:33;101627.0;;;27.66;49.1
61676;BME280;47574;52.090;5.244;2022-08-25T02:41:48;101627.0;;;27.76;48.72
61676;BME280;47574;52.090;5.244;2022-08-25T02:43:27;101625.0;;;27.68;48.86
61676;BME280;47574;52.090;5.244;2022-08-25T02:45:04;101625.0;;;27.82;48.33
61676;BME280;47574;52.090;5.244;2022-08-25T02:48:17;101623.0;;;27.82;48.46
61676;BME280;47574;52.090;5.244;2022-08-25T02:49:54;101623.0;;;27.77;48.14
61676;BME280;47574;52.090;5.244;2022-08-25T02:51:32;101625.0;;;27.76;48.2
61676;BME280;47574;52.090;5.244;2022-08-25T02:53:09;101619.0;;;27.87;47.91
61676;BME280;47574;52.090;5.244;2022-08-25T02:56:22;101619.0;;;27.86;47.76
61676;BME280;47574;52.090;5.244;2022-08-25T02:57:59;101614.0;;;27.78;48.02
61676;BME280;47574;52.090;5.244;2022-08-25T02:59:35;101613.0;;;27.96;47.61
61676;BME280;47574;52.090;5.244;2022-08-25T03:02:49;101613.0;;;27.96;47.17
61676;BME280;47574;52.090;5.244;2022-08-25T03:04:25;101611.0;;;27.93;47.14
61676;BME280;47574;52.090;5.244;2022-08-25T03:06:01;101610.0;;;27.94;46.99
61676;BME280;47574;52.090;5.244;2022-08-25T03:09:14;101609.0;;;28.06;46.67
61676;BME280;47574;52.090;5.244;2022-08-25T03:10:51;101605.0;;;27.99;46.53
61676;BME280;47574;52.090;5.244;2022-08-25T03:12:27;101603.0;;;28.03;46.81
61676;BME280;47574;52.090;5.244;2022-08-25T03:14:03;101599.0;;;28.05;46.42
61676;BME280;47574;52.090;5.244;2022-08-25T03:17:19;101595.0;;;28.06;46.39
61676;BME280;47574;52.090;5.244;2022-08-25T03:18:56;101601.0;;;28.17;46.04
61676;BME280;47574;52.090;5.244;2022-08-25T03:20:34;101596.0;;;28.26;45.86
61676;BME280;47574;52.090;5.244;2022-08-25T03:23:47;101597.0;;;28.22;45.43
61676;BME280;47574;52.090;5.244;2022-08-25T03:28:17;101591.0;;;28.02;45.67
61676;BME280;47574;52.090;5.244;2022-08-25T03:29:55;101588.0;;;28.14;45.28
61676;BME280;47574;52.090;5.244;2022-08-25T03:31:32;101587.0;;;28.11;45.32
61676;BME280;47574;52.090;5.244;2022-08-25T03:33:10;101588.0;;;28.09;44.94
61676;BME280;47574;52.090;5.244;2022-08-25T03:36:23;101587.0;;;28.08;45.01
61676;BME280;47574;52.090;5.244;2022-08-25T03:38:00;101585.0;;;28.13;44.91
61676;BME280;47574;52.090;5.244;2022-08-25T03:39:39;101584.0;;;28.06;44.96
61676;BME280;47574;52.090;5.244;2022-08-25T03:41:19;101580.0;;;28.04;44.93
61676;BME280;47574;52.090;5.244;2022-08-25T03:44:32;101575.0;;;28.09;44.91
61676;BME280;47574;52.090;5.244;2022-08-25T03:46:15;101573.0;;;28.01;44.72
61676;BME280;47574;52.090;5.244;2022-08-25T03:47:53;101572.0;;;28.05;44.79
61676;BME280;47574;52.090;5.244;2022-08-25T03:51:06;101575.0;;;28.11;44.57
61676;BME280;47574;52.090;5.244;2022-08-25T03:52:42;101575.0;;;28.09;44.55
61676;BME280;47574;52.090;5.244;2022-08-25T03:54:21;101572.0;;;27.95;44.67
61676;BME280;47574;52.090;5.244;2022-08-25T03:55:59;101575.0;;;28.11;44.58
61676;BME280;47574;52.090;5.244;2022-08-25T03:59:13;101574.0;;;28.11;44.18
61676;BME280;47574;52.090;5.244;2022-08-25T04:00:50;101565.0;;;27.99;44.43
61676;BME280;47574;52.090;5.244;2022-08-25T04:02:26;101565.0;;;28.08;43.91
61676;BME280;47574;52.090;5.244;2022-08-25T04:05:40;101568.0;;;27.96;44.17
61676;BME280;47574;52.090;5.244;2022-08-25T04:07:17;101562.0;;;27.97;43.9
61676;BME280;47574;52.090;5.244;2022-08-25T04:08:54;101565.0;;;27.99;43.93
61676;BME280;47574;52.090;5.244;2022-08-25T04:10:31;101567.0;;;27.97;43.84
61676;BME280;47574;52.090;5.244;2022-08-25T04:13:46;101561.0;;;27.87;43.93
61676;BME280;47574;52.090;5.244;2022-08-25T04:15:24;101558.0;;;27.99;43.69
61676;BME280;47574;52.090;5.244;2022-08-25T04:17:00;101556.0;;;27.83;43.81
61676;BME280;47574;52.090;5.244;2022-08-25T04:20:14;101552.0;;;27.87;43.82
61676;BME280;47574;52.090;5.244;2022-08-25T04:21:51;101551.0;;;27.96;43.38
61676;BME280;47574;52.090;5.244;2022-08-25T04:23:27;101551.0;;;27.81;43.89
61676;BME280;47574;52.090;5.244;2022-08-25T04:26:45;101553.0;;;28.0;43.2
61676;BME280;47574;52.090;5.244;2022-08-25T04:28:22;101550.0;;;28.04;43.07
61676;BME280;47574;52.090;5.244;2022-08-25T04:29:58;101545.0;;;27.83;43.29
61676;BME280;47574;52.090;5.244;2022-08-25T04:31:38;101540.0;;;27.95;42.87
61676;BME280;47574;52.090;5.244;2022-08-25T04:34:51;101540.0;;;27.73;43.56
61676;BME280;47574;52.090;5.244;2022-08-25T04:36:27;101543.0;;;27.9;42.85
61676;BME280;47574;52.090;5.244;2022-08-25T04:38:04;101545.0;;;28.0;42.75
61676;BME280;47574;52.090;5.244;2022-08-25T04:41:21;101544.0;;;27.81;42.95
61676;BME280;47574;52.090;5.244;2022-08-25T04:42:57;101553.0;;;27.78;43.06
61676;BME280;47574;52.090;5.244;2022-08-25T04:44:34;101555.0;;;27.78;43.27
61676;BME280;47574;52.090;5.244;2022-08-25T04:46:13;101557.0;;;27.74;43.28
61676;BME280;47574;52.090;5.244;2022-08-25T04:49:27;101558.0;;;27.76;43.34
61676;BME280;47574;52.090;5.244;2022-08-25T04:51:06;101555.0;;;27.68;43.18
61676;BME280;47574;52.090;5.244;2022-08-25T04:52:45;101558.0;;;27.72;43.13
61676;BME280;47574;52.090;5.244;2022-08-25T04:55:58;101553.0;;;27.78;43.01
61676;BME280;47574;52.090;5.244;2022-08-25T04:57:35;101550.0;;;27.7;43.13
61676;BME280;47574;52.090;5.244;2022-08-25T04:59:14;101547.0;;;27.74;42.98
61676;BME280;47574;52.090;5.244;2022-08-25T05:00:51;101546.0;;;27.69;43.14
61676;BME280;47574;52.090;5.244;2022-08-25T05:07:19;101545.0;;;27.66;42.87
61676;BME280;47574;52.090;5.244;2022-08-25T05:10:33;101547.0;;;27.64;42.95
61676;BME280;47574;52.090;5.244;2022-08-25T05:12:14;101549.0;;;27.59;42.67
61676;BME280;47574;52.090;5.244;2022-08-25T05:13:53;101548.0;;;27.54;43.15
61676;BME280;47574;52.090;5.244;2022-08-25T05:16:02;101546.0;;;27.58;43.07
61676;BME280;47574;52.090;5.244;2022-08-25T05:17:39;101547.0;;;27.58;43.06
61676;BME280;47574;52.090;5.244;2022-08-25T05:20:53;101553.0;;;27.6;42.95
61676;BME280;47574;52.090;5.244;2022-08-25T05:22:30;101555.0;;;27.65;42.89
61676;BME280;47574;52.090;5.244;2022-08-25T05:24:07;101561.0;;;27.57;42.62
61676;BME280;47574;52.090;5.244;2022-08-25T05:27:20;101565.0;;;27.55;42.42
61676;BME280;47574;52.090;5.244;2022-08-25T05:28:57;101565.0;;;27.55;42.82
61676;BME280;47574;52.090;5.244;2022-08-25T05:30:36;101566.0;;;27.55;42.93
61676;BME280;47574;52.090;5.244;2022-08-25T05:32:13;101568.0;;;27.54;42.73
61676;BME280;47574;52.090;5.244;2022-08-25T05:35:27;101566.0;;;27.65;42.35
61676;BME280;47574;52.090;5.244;2022-08-25T05:37:03;101565.0;;;27.65;42.08
61676;BME280;47574;52.090;5.244;2022-08-25T05:38:40;101565.0;;;27.69;42.09
61676;BME280;47574;52.090;5.244;2022-08-25T05:41:54;101568.0;;;27.68;42.16
61676;BME280;47574;52.090;5.244;2022-08-25T05:43:31;101573.0;;;27.63;42.49
61676;BME280;47574;52.090;5.244;2022-08-25T05:45:09;101571.0;;;27.75;41.78
61676;BME280;47574;52.090;5.244;2022-08-25T05:46:46;101577.0;;;27.74;41.74
61676;BME280;47574;52.090;5.244;2022-08-25T05:50:00;101582.0;;;27.87;41.8
61676;BME280;47574;52.090;5.244;2022-08-25T05:51:36;101581.0;;;27.97;41.68
61676;BME280;47574;52.090;5.244;2022-08-25T05:53:12;101584.0;;;27.98;41.26
61676;BME280;47574;52.090;5.244;2022-08-25T05:56:25;101582.0;;;27.87;41.62
61676;BME280;47574;52.090;5.244;2022-08-25T05:58:01;101582.0;;;27.92;41.52
61676;BME280;47574;52.090;5.244;2022-08-25T05:59:37;101581.0;;;27.89;41.51
61676;BME280;47574;52.090;5.244;2022-08-25T06:04:05;101580.0;;;28.11;41.36
61676;BME280;47574;52.090;5.244;2022-08-25T06:05:41;101581.0;;;28.1;41.85
61676;BME280;47574;52.090;5.244;2022-08-25T06:08:54;101580.0;;;28.16;41.18
61676;BME280;47574;52.090;5.244;2022-08-25T06:10:30;101580.0;;;28.14;40.76
61676;BME280;47574;52.090;5.244;2022-08-25T06:12:07;101582.0;;;28.29;40.07
61676;BME280;47574;52.090;5.244;2022-08-25T06:15:22;101587.0;;;28.22;40.11
61676;BME280;47574;52.090;5.244;2022-08-25T06:16:59;101591.0;;;28.3;40.28
61676;BME280;47574;52.090;5.244;2022-08-25T06:18:36;101593.0;;;28.54;39.42
61676;BME280;47574;52.090;5.244;2022-08-25T06:20:15;101594.0;;;28.59;39.26
61676;BME280;47574;52.090;5.244;2022-08-25T06:23:30;101586.0;;;28.63;39.04
61676;BME280;47574;52.090;5.244;2022-08-25T06:25:08;101590.0;;;28.58;39.04
61676;BME280;47574;52.090;5.244;2022-08-25T06:26:45;101585.0;;;28.56;38.94
61676;BME280;47574;52.090;5.244;2022-08-25T06:29:58;101588.0;;;28.55;39.1
61676;BME280;47574;52.090;5.244;2022-08-25T06:31:35;101589.0;;;28.65;38.76
61676;BME280;47574;52.090;5.244;2022-08-25T06:33:11;101585.0;;;28.73;38.79
61676;BME280;47574;52.090;5.244;2022-08-25T06:34:49;101583.0;;;28.75;38.14
61676;BME280;47574;52.090;5.244;2022-08-25T06:38:00;101580.0;;;28.65;38.6
61676;BME280;47574;52.090;5.244;2022-08-25T06:39:37;101580.0;;;28.71;38.72
61676;BME280;47574;52.090;5.244;2022-08-25T06:41:13;101583.0;;;28.86;38.12
61676;BME280;47574;52.090;5.244;2022-08-25T06:44:26;101575.0;;;28.68;38.33
61676;BME280;47574;52.090;5.244;2022-08-25T06:46:08;101577.0;;;28.81;37.96
61676;BME280;47574;52.090;5.244;2022-08-25T06:47:44;101578.0;;;28.82;37.81
61676;BME280;47574;52.090;5.244;2022-08-25T06:50:57;101572.0;;;29.01;37.76
61676;BME280;47574;52.090;5.244;2022-08-25T06:52:34;101578.0;;;29.04;37.51
61676;BME280;47574;52.090;5.244;2022-08-25T06:54:11;101584.0;;;28.91;37.6
61676;BME280;47574;52.090;5.244;2022-08-25T06:55:55;101580.0;;;28.81;37.71
61676;BME280;47574;52.090;5.244;2022-08-25T06:59:11;101576.0;;;29.1;37.53
61676;BME280;47574;52.090;5.244;2022-08-25T07:00:48;101570.0;;;29.16;37.1
61676;BME280;47574;52.090;5.244;2022-08-25T07:02:23;101570.0;;;28.95;37.33
61676;BME280;47574;52.090;5.244;2022-08-25T07:07:16;101566.0;;;29.14;36.96
61676;BME280;47574;52.090;5.244;2022-08-25T07:08:52;101568.0;;;29.28;36.9
61676;BME280;47574;52.090;5.244;2022-08-25T07:10:29;101569.0;;;29.39;36.72
61676;BME280;47574;52.090;5.244;2022-08-25T07:13:43;101571.0;;;29.56;36.64
61676;BME280;47574;52.090;5.244;2022-08-25T07:15:19;101573.0;;;29.54;37.01
61676;BME280;47574;52.090;5.244;2022-08-25T07:16:56;101575.0;;;29.51;36.75
61676;BME280;47574;52.090;5.244;2022-08-25T07:20:11;101574.0;;;29.6;36.61
61676;BME280;47574;52.090;5.244;2022-08-25T07:21:49;101567.0;;;29.25;37.24
61676;BME280;47574;52.090;5.244;2022-08-25T07:23:27;101572.0;;;29.43;37.21
61676;BME280;47574;52.090;5.244;2022-08-25T07:25:04;101575.0;;;29.72;36.76
61676;BME280;47574;52.090;5.244;2022-08-25T07:28:21;101580.0;;;29.65;36.92
61676;BME280;47574;52.090;5.244;2022-08-25T07:29:57;101580.0;;;29.61;36.79
61676;BME280;47574;52.090;5.244;2022-08-25T07:31:33;101578.0;;;29.77;36.68
61676;BME280;47574;52.090;5.244;2022-08-25T07:35:19;101577.0;;;29.83;36.67
61676;BME280;47574;52.090;5.244;2022-08-25T07:36:56;101577.0;;;29.92;36.68
61676;BME280;47574;52.090;5.244;2022-08-25T07:38:32;101577.0;;;29.88;36.75
61676;BME280;47574;52.090;5.244;2022-08-25T07:40:12;101573.0;;;29.89;36.89
61676;BME280;47574;52.090;5.244;2022-08-25T07:41:49;101570.0;;;29.98;36.67
61676;BME280;47574;52.090;5.244;2022-08-25T07:45:05;101570.0;;;29.96;36.83
61676;BME280;47574;52.090;5.244;2022-08-25T07:46:42;101566.0;;;29.85;36.87
61676;BME280;47574;52.090;5.244;2022-08-25T07:48:19;101561.0;;;29.94;36.69
61676;BME280;47574;52.090;5.244;2022-08-25T07:51:32;101559.0;;;30.21;36.14
61676;BME280;47574;52.090;5.244;2022-08-25T07:53:10;101561.0;;;30.21;36.47
61676;BME280;47574;52.090;5.244;2022-08-25T07:54:48;101553.0;;;30.36;36.21
61676;BME280;47574;52.090;5.244;2022-08-25T07:56:24;101560.0;;;30.28;36.21
61676;BME280;47574;52.090;5.244;2022-08-25T07:59:41;101557.0;;;30.35;35.86
61676;BME280;47574;52.090;5.244;2022-08-25T08:01:20;101557.0;;;30.71;35.53
61676;BME280;47574;52.090;5.244;2022-08-25T08:02:58;101555.0;;;30.84;35.32
61676;BME280;47574;52.090;5.244;2022-08-25T08:06:15;101555.0;;;30.84;35.58
61676;BME280;47574;52.090;5.244;2022-08-25T08:07:53;101555.0;;;30.87;35.1
61676;BME280;47574;52.090;5.244;2022-08-25T08:09:30;101556.0;;;30.85;35.25
61676;BME280;47574;52.090;5.244;2022-08-25T08:11:13;101558.0;;;30.85;35.31
61676;BME280;47574;52.090;5.244;2022-08-25T08:14:27;101559.0;;;30.94;35.65
61676;BME280;47574;52.090;5.244;2022-08-25T08:16:07;101560.0;;;31.06;34.89
61676;BME280;47574;52.090;5.244;2022-08-25T08:17:44;101558.0;;;31.02;35.14
61676;BME280;47574;52.090;5.244;2022-08-25T08:20:58;101555.0;;;30.98;34.94
61676;BME280;47574;52.090;5.244;2022-08-25T08:22:34;101556.0;;;31.16;34.74
61676;BME280;47574;52.090;5.244;2022-08-25T08:24:10;101558.0;;;31.32;34.72
61676;BME280;47574;52.090;5.244;2022-08-25T08:25:47;101555.0;;;31.25;34.49
61676;BME280;47574;52.090;5.244;2022-08-25T08:28:59;101555.0;;;30.91;35.08
61676;BME280;47574;52.090;5.244;2022-08-25T08:30:35;101552.0;;;31.19;34.65
61676;BME280;47574;52.090;5.244;2022-08-25T08:32:13;101552.0;;;31.39;34.35
61676;BME280;47574;52.090;5.244;2022-08-25T08:35:25;101546.0;;;31.3;34.58
61676;BME280;47574;52.090;5.244;2022-08-25T08:37:02;101550.0;;;31.35;34.32
61676;BME280;47574;52.090;5.244;2022-08-25T08:38:41;101547.0;;;31.52;34.03
61676;BME280;47574;52.090;5.244;2022-08-25T08:42:39;101549.0;;;31.5;33.78
61676;BME280;47574;52.090;5.244;2022-08-25T08:44:33;101547.0;;;31.55;33.55
61676;BME280;47574;52.090;5.244;2022-08-25T08:46:13;101548.0;;;31.59;33.46
61676;BME280;47574;52.090;5.244;2022-08-25T08:48:01;101549.0;;;31.69;33.67
61676;BME280;47574;52.090;5.244;2022-08-25T08:49:48;101543.0;;;31.67;33.28
61676;BME280;47574;52.090;5.244;2022-08-25T08:51:32;101540.0;;;31.6;33.25
61676;BME280;47574;52.090;5.244;2022-08-25T08:53:30;101535.0;;;31.54;33.17
61676;BME280;47574;52.090;5.244;2022-08-25T08:55:22;101538.0;;;31.7;33.31
61676;BME280;47574;52.090;5.244;2022-08-25T08:57:10;101540.0;;;32.11;33.21
61676;BME280;47574;52.090;5.244;2022-08-25T09:00:32;101545.0;;;32.28;32.71
61676;BME280;47574;52.090;5.244;2022-08-25T09:02:15;101541.0;;;32.37;32.54
61676;BME280;47574;52.090;5.244;2022-08-25T09:04:04;101542.0;;;32.1;32.85
61676;BME280;47574;52.090;5.244;2022-08-25T09:05:50;101539.0;;;32.21;32.67
61676;BME280;47574;52.090;5.244;2022-08-25T09:09:13;101537.0;;;32.01;33.1
61676;BME280;47574;52.090;5.244;2022-08-25T09:11:00;101540.0;;;32.4;32.92
61676;BME280;47574;52.090;5.244;2022-08-25T09:12:43;101538.0;;;32.28;32.43
61676;BME280;47574;52.090;5.244;2022-08-25T09:14:34;101536.0;;;32.42;32.35
61676;BME280;47574;52.090;5.244;2022-08-25T09:17:23;101541.0;;;32.71;31.85
61676;BME280;47574;52.090;5.244;2022-08-25T09:19:28;101535.0;;;32.89;30.98
61676;BME280;47574;52.090;5.244;2022-08-25T09:22:30;101532.0;;;32.89;30.62
61676;BME280;47574;52.090;5.244;2022-08-25T09:24:28;101536.0;;;32.85;30.76
61676;BME280;47574;52.090;5.244;2022-08-25T09:28:07;101534.0;;;33.15;30.27
61676;BME280;47574;52.090;5.244;2022-08-25T09:29:58;101535.0;;;33.18;30.56
61676;BME280;47574;52.090;5.244;2022-08-25T09:31:37;101542.0;;;32.82;30.86
61676;BME280;47574;52.090;5.244;2022-08-25T09:33:18;101533.0;;;33.03;30.58
61676;BME280;47574;52.090;5.244;2022-08-25T09:35:02;101530.0;;;33.31;29.99
61676;BME280;47574;52.090;5.244;2022-08-25T09:38:16;101530.0;;;33.19;30.18
61676;BME280;47574;52.090;5.244;2022-08-25T09:39:52;101531.0;;;33.15;30.52
61676;BME280;47574;52.090;5.244;2022-08-25T09:41:46;101531.0;;;33.17;29.86
61676;BME280;47574;52.090;5.244;2022-08-25T09:43:30;101530.0;;;33.22;29.18
61676;BME280;47574;52.090;5.244;2022-08-25T09:47:00;101524.0;;;33.29;29.35
61676;BME280;47574;52.090;5.244;2022-08-25T09:48:43;101519.0;;;33.49;29.58
61676;BME280;47574;52.090;5.244;2022-08-25T09:50:20;101519.0;;;33.32;29.39
61676;BME280;47574;52.090;5.244;2022-08-25T09:52:16;101514.0;;;33.69;28.64
61676;BME280;47574;52.090;5.244;2022-08-25T09:54:03;101516.0;;;33.69;28.77
61676;BME280;47574;52.090;5.244;2022-08-25T09:55:42;101512.0;;;33.47;28.67
61676;BME280;47574;52.090;5.244;2022-08-25T09:59:19;101514.0;;;33.78;28.47
61676;BME280;47574;52.090;5.244;2022-08-25T10:01:05;101509.0;;;33.65;29.05
61676;BME280;47574;52.090;5.244;2022-08-25T10:02:44;101511.0;;;33.75;28.64
61676;BME280;47574;52.090;5.244;2022-08-25T10:04:39;101505.0;;;33.74;28.47
61676;BME280;47574;52.090;5.244;2022-08-25T10:06:15;101499.0;;;34.05;28.26
61676;BME280;47574;52.090;5.244;2022-08-25T10:09:40;101498.0;;;33.94;27.99
61676;BME280;47574;52.090;5.244;2022-08-25T10:11:31;101494.0;;;33.92;27.75
61676;BME280;47574;52.090;5.244;2022-08-25T10:13:12;101488.0;;;34.29;27.66
61676;BME280;47574;52.090;5.244;2022-08-25T10:14:52;101490.0;;;34.35;27.64
61676;BME280;47574;52.090;5.244;2022-08-25T10:18:19;101486.0;;;34.56;26.82
61676;BME280;47574;52.090;5.244;2022-08-25T10:20:15;101486.0;;;34.64;26.97
61676;BME280;47574;52.090;5.244;2022-08-25T10:22:04;101486.0;;;34.74;27.19
61676;BME280;47574;52.090;5.244;2022-08-25T10:23:46;101486.0;;;34.42;27.33
61676;BME280;47574;52.090;5.244;2022-08-25T10:25:27;101482.0;;;34.29;27.49
61676;BME280;47574;52.090;5.244;2022-08-25T10:27:10;101475.0;;;34.47;27.81
61676;BME280;47574;52.090;5.244;2022-08-25T10:31:04;101476.0;;;34.5;27.22
61676;BME280;47574;52.090;5.244;2022-08-25T10:33:00;101473.0;;;34.61;26.41
61676;BME280;47574;52.090;5.244;2022-08-25T10:35:07;101473.0;;;34.83;25.87
61676;BME280;47574;52.090;5.244;2022-08-25T10:36:54;101473.0;;;34.85;26.12
61676;BME280;47574;52.090;5.244;2022-08-25T10:38:42;101472.0;;;35.03;25.36
61676;BME280;47574;52.090;5.244;2022-08-25T10:40:23;101469.0;;;34.92;25.56
61676;BME280;47574;52.090;5.244;2022-08-25T10:42:14;101466.0;;;34.76;24.94
61676;BME280;47574;52.090;5.244;2022-08-25T10:44:05;101465.0;;;34.67;25.45
61676;BME280;47574;52.090;5.244;2022-08-25T10:48:04;101458.0;;;34.62;25.49
61676;BME280;47574;52.090;5.244;2022-08-25T10:49:47;101461.0;;;35.03;24.94
61676;BME280;47574;52.090;5.244;2022-08-25T10:51:38;101453.0;;;35.08;24.99
61676;BME280;47574;52.090;5.244;2022-08-25T10:53:25;101455.0;;;34.99;24.77
61676;BME280;47574;52.090;5.244;2022-08-25T10:55:12;101453.0;;;35.29;24.79
61676;BME280;47574;52.090;5.244;2022-08-25T10:56:59;101449.0;;;35.6;23.29
61676;BME280;47574;52.090;5.244;2022-08-25T10:59:06;101444.0;;;35.74;23.0
61676;BME280;47574;52.090;5.244;2022-08-25T11:00:54;101441.0;;;35.64;22.9
61676;BME280;47574;52.090;5.244;2022-08-25T11:02:59;101434.0;;;35.46;23.02
61676;BME280;47574;52.090;5.244;2022-08-25T11:04:54;101434.0;;;35.57;23.8
61676;BME280;47574;52.090;5.244;2022-08-25T11:08:24;101433.0;;;35.61;24.01
61676;BME280;47574;52.090;5.244;2022-08-25T11:10:11;101430.0;;;35.53;23.55
61676;BME280;47574;52.090;5.244;2022-08-25T11:11:54;101430.0;;;35.61;23.56
61676;BME280;47574;52.090;5.244;2022-08-25T11:13:43;101430.0;;;35.71;24.06
61676;BME280;47574;52.090;5.244;2022-08-25T11:15:26;101432.0;;;35.68;24.21
61676;BME280;47574;52.090;5.244;2022-08-25T11:18:53;101426.0;;;35.64;24.29